sensor_id;sensor_type;location;lat;lon;timestamp;pressure;altitude;pressure_sealevel;temperature;humidity
4410;BME280;2218;51.408;7.208;2023-07-20T00:01:35;99572.22;;;24.09;52.63
4410;BME280;2218;51.408;7.208;2023-07-20T00:04:04;99566.91;;;24.09;52.09
4410;BME280;2218;51.408;7.208;2023-07-20T00:06:31;99567.91;;;24.08;52.16
4410;BME280;2218;51.408;7.208;2023-07-20T00:08:57;99572.22;;;24.09;52.59
4410;BME280;2218;51.408;7.208;2023-07-20T00:11:27;99567.91;;;24.08;52.14
4410;BME280;2218;51.408;7.208;2023-07-20T00:13:55;99569.56;;;24.09;52.24
4410;BME280;2218;51.408;7.208;2023-07-20T00:16:22;99567.06;;;24.07;52.07
4410;BME280;2218;51.408;7.208;2023-07-20T00:18:49;99570.53;;;24.08;52.03
4410;BME280;2218;51.408;7.208;2023-07-20T00:21:16;99562.59;;;24.08;52.02
4410;BME280;2218;51.408;7.208;2023-07-20T00:23:43;99568.84;;;24.07;52.42
4410;BME280;2218;51.408;7.208;2023-07-20T00:26:10;99561.88;;;24.06;52.28
4410;BME280;2218;51.408;7.208;2023-07-20T00:28:37;99552.22;;;24.05;52.55
4410;BME280;2218;51.408;7.208;2023-07-20T00:31:05;99559.22;;;24.06;52.42
4410;BME280;2218;51.408;7.208;2023-07-20T00:33:32;99560.03;;;24.06;52.71
4410;BME280;2218;51.408;7.208;2023-07-20T00:35:59;99553.91;;;24.06;52.33
4410;BME280;2218;51.408;7.208;2023-07-20T00:38:26;99564.53;;;24.06;52.53
4410;BME280;2218;51.408;7.208;2023-07-20T00:40:53;99559.22;;;24.06;52.62
4410;BME280;2218;51.408;7.208;2023-07-20T00:43:20;99550.56;;;24.04;52.31
4410;BME280;2218;51.408;7.208;2023-07-20T00:45:47;99552.22;;;24.05;52.49
4410;BME280;2218;51.408;7.208;2023-07-20T00:48:15;99549.56;;;24.05;52.35
4410;BME280;2218;51.408;7.208;2023-07-20T00:50:43;99546.91;;;24.05;52.35
4410;BME280;2218;51.408;7.208;2023-07-20T00:53:12;99549.72;;;24.03;52.36
4410;BME280;2218;51.408;7.208;2023-07-20T00:55:38;99547.91;;;24.04;52.63
4410;BME280;2218;51.408;7.208;2023-07-20T00:58:07;99548.06;;;24.02;52.33
4410;BME280;2218;51.408;7.208;2023-07-20T01:00:34;99555.88;;;24.04;52.32
4410;BME280;2218;51.408;7.208;2023-07-20T01:03:01;99554.19;;;24.03;52.44
4410;BME280;2218;51.408;7.208;2023-07-20T01:05:40;99558.69;;;24.02;52.28
4410;BME280;2218;51.408;7.208;2023-07-20T01:08:16;99553.38;;;24.02;52.56
4410;BME280;2218;51.408;7.208;2023-07-20T01:10:52;99548.06;;;24.02;52.54
4410;BME280;2218;51.408;7.208;2023-07-20T01:13:21;99549.84;;;24.02;52.42
4410;BME280;2218;51.408;7.208;2023-07-20T01:15:56;99547.19;;;24.02;52.38
4410;BME280;2218;51.408;7.208;2023-07-20T01:18:25;99542.88;;;24.01;52.43
4410;BME280;2218;51.408;7.208;2023-07-20T01:20:59;99555.31;;;24.00;52.27
4410;BME280;2218;51.408;7.208;2023-07-20T01:23:48;99549.16;;;23.99;52.35
4410;BME280;2218;51.408;7.208;2023-07-20T01:26:57;99553.63;;;23.99;52.29
4410;BME280;2218;51.408;7.208;2023-07-20T01:29:54;99549.16;;;23.99;52.11
4410;BME280;2218;51.408;7.208;2023-07-20T01:32:31;99544.84;;;23.98;52.28
4410;BME280;2218;51.408;7.208;2023-07-20T01:35:01;99533.22;;;23.99;52.27
4410;BME280;2218;51.408;7.208;2023-07-20T01:37:31;99532.41;;;23.99;52.27
4410;BME280;2218;51.408;7.208;2023-07-20T01:40:00;99542.19;;;23.98;52.30
4410;BME280;2218;51.408;7.208;2023-07-20T01:42:27;99538.69;;;23.98;51.94
4410;BME280;2218;51.408;7.208;2023-07-20T01:44:53;99529.91;;;23.97;52.30
4410;BME280;2218;51.408;7.208;2023-07-20T01:47:23;99537.03;;;23.97;52.19
4410;BME280;2218;51.408;7.208;2023-07-20T01:49:52;99539.69;;;23.97;52.20
4410;BME280;2218;51.408;7.208;2023-07-20T01:52:18;99533.50;;;23.96;51.92
4410;BME280;2218;51.408;7.208;2023-07-20T01:54:45;99536.16;;;23.96;52.18
4410;BME280;2218;51.408;7.208;2023-07-20T01:57:12;99543.16;;;23.97;52.44
4410;BME280;2218;51.408;7.208;2023-07-20T01:59:39;99533.50;;;23.96;52.41
4410;BME280;2218;51.408;7.208;2023-07-20T02:02:06;99532.66;;;23.96;52.21
4410;BME280;2218;51.408;7.208;2023-07-20T02:04:33;99516.75;;;23.96;52.19
4410;BME280;2218;51.408;7.208;2023-07-20T02:07:01;99518.56;;;23.95;52.36
4410;BME280;2218;51.408;7.208;2023-07-20T02:09:28;99527.34;;;23.96;51.95
4410;BME280;2218;51.408;7.208;2023-07-20T02:11:55;99518.56;;;23.95;52.13
4410;BME280;2218;51.408;7.208;2023-07-20T02:14:23;99519.56;;;23.94;52.32
4410;BME280;2218;51.408;7.208;2023-07-20T02:16:49;99523.88;;;23.95;52.12
4410;BME280;2218;51.408;7.208;2023-07-20T02:19:20;99512.56;;;23.93;52.39
4410;BME280;2218;51.408;7.208;2023-07-20T02:21:47;99521.53;;;23.92;51.92
4410;BME280;2218;51.408;7.208;2023-07-20T02:24:15;99524.03;;;23.94;52.39
4410;BME280;2218;51.408;7.208;2023-07-20T02:26:42;99523.19;;;23.93;52.33
4410;BME280;2218;51.408;7.208;2023-07-20T02:29:09;99531.16;;;23.93;52.13
4410;BME280;2218;51.408;7.208;2023-07-20T02:31:37;99516.22;;;23.92;52.49
4410;BME280;2218;51.408;7.208;2023-07-20T02:34:05;99526.81;;;23.92;52.41
4410;BME280;2218;51.408;7.208;2023-07-20T02:36:32;99517.88;;;23.93;52.25
4410;BME280;2218;51.408;7.208;2023-07-20T02:38:59;99526.81;;;23.92;51.87
4410;BME280;2218;51.408;7.208;2023-07-20T02:41:29;99526.81;;;23.92;52.22
4410;BME280;2218;51.408;7.208;2023-07-20T02:43:56;99527.78;;;23.91;52.39
4410;BME280;2218;51.408;7.208;2023-07-20T02:46:23;99526.81;;;23.92;52.51
4410;BME280;2218;51.408;7.208;2023-07-20T02:48:50;99531.41;;;23.90;52.64
4410;BME280;2218;51.408;7.208;2023-07-20T02:51:17;99534.06;;;23.90;51.93
4410;BME280;2218;51.408;7.208;2023-07-20T02:53:44;99540.22;;;23.91;52.54
4410;BME280;2218;51.408;7.208;2023-07-20T02:56:11;99550.00;;;23.90;52.41
4410;BME280;2218;51.408;7.208;2023-07-20T02:58:41;99544.69;;;23.90;52.11
4410;BME280;2218;51.408;7.208;2023-07-20T03:01:11;99545.69;;;23.89;52.34
4410;BME280;2218;51.408;7.208;2023-07-20T03:03:38;99548.31;;;23.89;52.33
4410;BME280;2218;51.408;7.208;2023-07-20T03:06:05;99549.16;;;23.90;52.47
4410;BME280;2218;51.408;7.208;2023-07-20T03:08:35;99551.81;;;23.90;52.27
4410;BME280;2218;51.408;7.208;2023-07-20T03:11:02;99548.47;;;23.88;52.45
4410;BME280;2218;51.408;7.208;2023-07-20T03:13:29;99549.31;;;23.88;52.52
4410;BME280;2218;51.408;7.208;2023-07-20T03:15:57;99544.00;;;23.88;52.67
4410;BME280;2218;51.408;7.208;2023-07-20T03:18:24;99549.44;;;23.87;52.36
4410;BME280;2218;51.408;7.208;2023-07-20T03:20:51;99550.31;;;23.87;52.14
4410;BME280;2218;51.408;7.208;2023-07-20T03:23:18;99548.59;;;23.86;52.35
4410;BME280;2218;51.408;7.208;2023-07-20T03:25:45;99553.91;;;23.86;52.41
4410;BME280;2218;51.408;7.208;2023-07-20T03:28:12;99551.25;;;23.86;52.45
4410;BME280;2218;51.408;7.208;2023-07-20T03:30:40;99553.06;;;23.86;52.52
4410;BME280;2218;51.408;7.208;2023-07-20T03:33:08;99556.72;;;23.85;52.34
4410;BME280;2218;51.408;7.208;2023-07-20T03:35:35;99553.06;;;23.86;52.36
4410;BME280;2218;51.408;7.208;2023-07-20T03:38:03;99557.53;;;23.85;52.62
4410;BME280;2218;51.408;7.208;2023-07-20T03:40:31;99563.84;;;23.84;52.44
4410;BME280;2218;51.408;7.208;2023-07-20T03:42:58;99560.34;;;23.84;52.35
4410;BME280;2218;51.408;7.208;2023-07-20T03:45:25;99558.69;;;23.83;52.50
4410;BME280;2218;51.408;7.208;2023-07-20T03:47:51;99561.44;;;23.81;52.86
4410;BME280;2218;51.408;7.208;2023-07-20T03:50:20;99563.16;;;23.82;52.70
4410;BME280;2218;51.408;7.208;2023-07-20T03:52:47;99563.16;;;23.82;52.32
4410;BME280;2218;51.408;7.208;2023-07-20T03:55:14;99563.16;;;23.82;52.67
4410;BME280;2218;51.408;7.208;2023-07-20T03:57:41;99552.53;;;23.82;52.19
4410;BME280;2218;51.408;7.208;2023-07-20T04:00:10;99558.78;;;23.81;52.94
4410;BME280;2218;51.408;7.208;2023-07-20T04:02:41;99565.09;;;23.80;52.48
4410;BME280;2218;51.408;7.208;2023-07-20T04:05:08;99574.72;;;23.81;52.54
4410;BME280;2218;51.408;7.208;2023-07-20T04:07:36;99577.38;;;23.81;52.58
4410;BME280;2218;51.408;7.208;2023-07-20T04:10:02;99573.03;;;23.80;52.70
4410;BME280;2218;51.408;7.208;2023-07-20T04:12:29;99581.00;;;23.80;52.79
4410;BME280;2218;51.408;7.208;2023-07-20T04:14:56;99582.81;;;23.80;52.59
4410;BME280;2218;51.408;7.208;2023-07-20T04:17:23;99582.00;;;23.79;52.85
4410;BME280;2218;51.408;7.208;2023-07-20T04:19:50;99579.34;;;23.79;52.65
4410;BME280;2218;51.408;7.208;2023-07-20T04:22:17;99574.03;;;23.79;52.70
4410;BME280;2218;51.408;7.208;2023-07-20T04:24:45;99576.69;;;23.79;52.60
4410;BME280;2218;51.408;7.208;2023-07-20T04:27:12;99575.00;;;23.78;52.78
4410;BME280;2218;51.408;7.208;2023-07-20T04:29:39;99583.81;;;23.79;53.09
4410;BME280;2218;51.408;7.208;2023-07-20T04:32:07;99583.97;;;23.77;52.67
4410;BME280;2218;51.408;7.208;2023-07-20T04:34:36;99590.94;;;23.78;53.20
4410;BME280;2218;51.408;7.208;2023-07-20T04:37:04;99597.22;;;23.77;52.88
4410;BME280;2218;51.408;7.208;2023-07-20T04:39:31;99604.22;;;23.78;52.63
4410;BME280;2218;51.408;7.208;2023-07-20T04:42:04;99593.72;;;23.77;52.54
4410;BME280;2218;51.408;7.208;2023-07-20T04:44:31;99592.75;;;23.78;52.62
4410;BME280;2218;51.408;7.208;2023-07-20T04:46:58;99603.38;;;23.78;52.71
4410;BME280;2218;51.408;7.208;2023-07-20T04:49:25;99598.06;;;23.78;52.51
4410;BME280;2218;51.408;7.208;2023-07-20T04:51:52;99598.91;;;23.78;53.12
4410;BME280;2218;51.408;7.208;2023-07-20T04:54:20;99602.38;;;23.79;52.96
4410;BME280;2218;51.408;7.208;2023-07-20T04:56:48;99609.50;;;23.78;53.08
4410;BME280;2218;51.408;7.208;2023-07-20T04:59:16;99608.78;;;23.76;53.21
4410;BME280;2218;51.408;7.208;2023-07-20T05:01:43;99608.78;;;23.76;53.30
4410;BME280;2218;51.408;7.208;2023-07-20T05:04:10;99609.50;;;23.78;52.64
4410;BME280;2218;51.408;7.208;2023-07-20T05:06:37;99607.53;;;23.80;52.79
4410;BME280;2218;51.408;7.208;2023-07-20T05:09:05;99605.88;;;23.79;52.89
4410;BME280;2218;51.408;7.208;2023-07-20T05:11:33;99610.06;;;23.82;52.45
4410;BME280;2218;51.408;7.208;2023-07-20T05:14:00;99604.47;;;23.85;52.74
4410;BME280;2218;51.408;7.208;2023-07-20T05:16:30;99604.47;;;23.85;52.49
4410;BME280;2218;51.408;7.208;2023-07-20T05:19:02;99606.28;;;23.84;52.86
4410;BME280;2218;51.408;7.208;2023-07-20T05:21:29;99606.44;;;23.83;52.92
4410;BME280;2218;51.408;7.208;2023-07-20T05:23:56;99614.53;;;23.81;52.83
4410;BME280;2218;51.408;7.208;2023-07-20T05:26:23;99612.84;;;23.80;52.84
4410;BME280;2218;51.408;7.208;2023-07-20T05:28:50;99607.53;;;23.80;53.13
4410;BME280;2218;51.408;7.208;2023-07-20T05:31:17;99627.09;;;23.79;53.10
4410;BME280;2218;51.408;7.208;2023-07-20T05:33:45;99616.50;;;23.79;53.19
4410;BME280;2218;51.408;7.208;2023-07-20T05:36:12;99616.50;;;23.79;52.86
4410;BME280;2218;51.408;7.208;2023-07-20T05:38:39;99617.31;;;23.80;53.01
4410;BME280;2218;51.408;7.208;2023-07-20T05:41:05;99621.78;;;23.79;52.97
4410;BME280;2218;51.408;7.208;2023-07-20T05:43:36;99621.78;;;23.79;52.96
4410;BME280;2218;51.408;7.208;2023-07-20T05:46:02;99627.09;;;23.79;52.87
4410;BME280;2218;51.408;7.208;2023-07-20T05:48:30;99632.41;;;23.79;52.80
4410;BME280;2218;51.408;7.208;2023-07-20T05:50:59;99627.25;;;23.78;53.08
4410;BME280;2218;51.408;7.208;2023-07-20T05:53:26;99630.75;;;23.78;53.16
4410;BME280;2218;51.408;7.208;2023-07-20T05:55:53;99632.56;;;23.78;52.96
4410;BME280;2218;51.408;7.208;2023-07-20T05:58:20;99630.75;;;23.78;53.07
4410;BME280;2218;51.408;7.208;2023-07-20T06:00:48;99630.75;;;23.78;53.00
4410;BME280;2218;51.408;7.208;2023-07-20T06:03:16;99638.69;;;23.78;52.74
4410;BME280;2218;51.408;7.208;2023-07-20T06:05:43;99632.41;;;23.79;52.93
4410;BME280;2218;51.408;7.208;2023-07-20T06:08:12;99644.84;;;23.79;52.96
4410;BME280;2218;51.408;7.208;2023-07-20T06:10:38;99645.69;;;23.79;53.13
4410;BME280;2218;51.408;7.208;2023-07-20T06:13:06;99653.66;;;23.79;53.12
4410;BME280;2218;51.408;7.208;2023-07-20T06:15:34;99643.03;;;23.79;52.96
4410;BME280;2218;51.408;7.208;2023-07-20T06:18:01;99654.47;;;23.80;53.08
4410;BME280;2218;51.408;7.208;2023-07-20T06:20:29;99656.44;;;23.78;53.41
4410;BME280;2218;51.408;7.208;2023-07-20T06:22:56;99657.97;;;23.80;52.93
4410;BME280;2218;51.408;7.208;2023-07-20T06:25:24;99654.31;;;23.81;53.16
4410;BME280;2218;51.408;7.208;2023-07-20T06:27:51;99659.22;;;23.86;53.09
4410;BME280;2218;51.408;7.208;2023-07-20T06:30:19;99663.44;;;23.88;52.67
4410;BME280;2218;51.408;7.208;2023-07-20T06:32:47;99656.31;;;23.89;52.74
4410;BME280;2218;51.408;7.208;2023-07-20T06:35:15;99658.13;;;23.88;52.92
4410;BME280;2218;51.408;7.208;2023-07-20T06:37:43;99658.38;;;23.85;52.83
4410;BME280;2218;51.408;7.208;2023-07-20T06:40:10;99666.34;;;23.85;52.87
4410;BME280;2218;51.408;7.208;2023-07-20T06:42:39;99663.56;;;23.87;52.74
4410;BME280;2218;51.408;7.208;2023-07-20T06:45:07;99660.06;;;23.86;53.02
4410;BME280;2218;51.408;7.208;2023-07-20T06:47:34;99659.13;;;23.87;52.81
4410;BME280;2218;51.408;7.208;2023-07-20T06:50:01;99661.47;;;23.90;52.50
4410;BME280;2218;51.408;7.208;2023-07-20T06:52:28;99655.47;;;23.88;53.09
4410;BME280;2218;51.408;7.208;2023-07-20T06:54:55;99656.47;;;23.87;52.76
4410;BME280;2218;51.408;7.208;2023-07-20T06:57:22;99651.16;;;23.87;52.81
4410;BME280;2218;51.408;7.208;2023-07-20T06:59:51;99658.13;;;23.88;52.97
4410;BME280;2218;51.408;7.208;2023-07-20T07:02:19;99666.78;;;23.90;52.37
4410;BME280;2218;51.408;7.208;2023-07-20T07:04:46;99660.50;;;23.91;52.77
4410;BME280;2218;51.408;7.208;2023-07-20T07:07:14;99667.75;;;23.89;52.71
4410;BME280;2218;51.408;7.208;2023-07-20T07:09:41;99672.09;;;23.90;52.41
4410;BME280;2218;51.408;7.208;2023-07-20T07:12:08;99676.41;;;23.91;52.41
4410;BME280;2218;51.408;7.208;2023-07-20T07:14:35;99672.09;;;23.90;52.37
4410;BME280;2218;51.408;7.208;2023-07-20T07:17:04;99664.84;;;23.92;52.47
4410;BME280;2218;51.408;7.208;2023-07-20T07:19:31;99676.84;;;23.96;52.05
4410;BME280;2218;51.408;7.208;2023-07-20T07:21:58;99670.84;;;23.94;52.15
4410;BME280;2218;51.408;7.208;2023-07-20T07:24:25;99671.41;;;23.98;52.20
4410;BME280;2218;51.408;7.208;2023-07-20T07:26:53;99674.06;;;23.98;51.94
4410;BME280;2218;51.408;7.208;2023-07-20T07:29:20;99679.50;;;23.96;52.08
4410;BME280;2218;51.408;7.208;2023-07-20T07:31:47;99681.47;;;23.94;52.57
4410;BME280;2218;51.408;7.208;2023-07-20T07:34:15;99673.50;;;23.94;52.25
4410;BME280;2218;51.408;7.208;2023-07-20T07:36:42;99682.44;;;23.93;52.15
4410;BME280;2218;51.408;7.208;2023-07-20T07:39:09;99684.13;;;23.94;52.46
4410;BME280;2218;51.408;7.208;2023-07-20T07:41:36;99685.78;;;23.95;51.73
4410;BME280;2218;51.408;7.208;2023-07-20T07:44:04;99688.31;;;23.97;52.00
4410;BME280;2218;51.408;7.208;2023-07-20T07:46:31;99686.63;;;23.96;52.11
4410;BME280;2218;51.408;7.208;2023-07-20T07:48:58;99685.69;;;23.97;51.88
4410;BME280;2218;51.408;7.208;2023-07-20T07:51:26;99686.38;;;23.99;52.12
4410;BME280;2218;51.408;7.208;2023-07-20T07:53:53;99685.38;;;24.00;51.88
4410;BME280;2218;51.408;7.208;2023-07-20T07:56:20;99690.53;;;24.02;52.18
4410;BME280;2218;51.408;7.208;2023-07-20T07:58:48;99691.41;;;24.02;51.65
4410;BME280;2218;51.408;7.208;2023-07-20T08:01:15;99690.53;;;24.02;52.11
4410;BME280;2218;51.408;7.208;2023-07-20T08:03:42;99692.25;;;24.03;52.29
4410;BME280;2218;51.408;7.208;2023-07-20T08:06:11;99693.19;;;24.02;52.19
4410;BME280;2218;51.408;7.208;2023-07-20T08:08:39;99699.22;;;24.04;52.29
4410;BME280;2218;51.408;7.208;2023-07-20T08:11:06;99688.59;;;24.04;52.10
4410;BME280;2218;51.408;7.208;2023-07-20T08:13:33;99700.91;;;24.05;52.36
4410;BME280;2218;51.408;7.208;2023-07-20T08:16:01;99705.22;;;24.06;52.11
4410;BME280;2218;51.408;7.208;2023-07-20T08:18:29;99702.56;;;24.06;51.86
4410;BME280;2218;51.408;7.208;2023-07-20T08:20:56;99710.41;;;24.07;52.45
4410;BME280;2218;51.408;7.208;2023-07-20T08:23:23;99710.41;;;24.07;52.12
4410;BME280;2218;51.408;7.208;2023-07-20T08:25:52;99707.75;;;24.07;52.20
4410;BME280;2218;51.408;7.208;2023-07-20T08:28:19;99712.22;;;24.07;52.40
4410;BME280;2218;51.408;7.208;2023-07-20T08:30:48;99706.91;;;24.07;52.10
4410;BME280;2218;51.408;7.208;2023-07-20T08:33:17;99710.53;;;24.06;52.36
4410;BME280;2218;51.408;7.208;2023-07-20T08:35:46;99725.47;;;24.07;51.93
4410;BME280;2218;51.408;7.208;2023-07-20T08:38:13;99714.03;;;24.06;51.91
4410;BME280;2218;51.408;7.208;2023-07-20T08:40:43;99721.16;;;24.06;52.06
4410;BME280;2218;51.408;7.208;2023-07-20T08:43:13;99725.47;;;24.07;51.89
4410;BME280;2218;51.408;7.208;2023-07-20T08:45:43;99721.88;;;24.08;52.18
4410;BME280;2218;51.408;7.208;2023-07-20T08:48:12;99718.25;;;24.09;52.38
4410;BME280;2218;51.408;7.208;2023-07-20T08:50:41;99716.56;;;24.08;52.33
4410;BME280;2218;51.408;7.208;2023-07-20T08:53:09;99724.53;;;24.08;52.16
4410;BME280;2218;51.408;7.208;2023-07-20T08:55:37;99712.94;;;24.09;52.17
4410;BME280;2218;51.408;7.208;2023-07-20T08:58:08;99727.19;;;24.08;52.42
4410;BME280;2218;51.408;7.208;2023-07-20T09:00:36;99730.53;;;24.10;52.10
4410;BME280;2218;51.408;7.208;2023-07-20T09:03:04;99735.84;;;24.10;51.93
4410;BME280;2218;51.408;7.208;2023-07-20T09:05:31;99735.00;;;24.09;52.04
4410;BME280;2218;51.408;7.208;2023-07-20T09:07:58;99724.25;;;24.11;51.87
4410;BME280;2218;51.408;7.208;2023-07-20T09:10:25;99723.28;;;24.12;52.17
4410;BME280;2218;51.408;7.208;2023-07-20T09:12:52;99723.28;;;24.12;51.95
4410;BME280;2218;51.408;7.208;2023-07-20T09:15:22;99725.94;;;24.12;52.14
4410;BME280;2218;51.408;7.208;2023-07-20T09:17:51;99721.59;;;24.11;51.88
4410;BME280;2218;51.408;7.208;2023-07-20T09:20:20;99718.94;;;24.11;52.04
4410;BME280;2218;51.408;7.208;2023-07-20T09:22:47;99720.47;;;24.13;51.77
4410;BME280;2218;51.408;7.208;2023-07-20T09:25:17;99724.13;;;24.12;51.99
4410;BME280;2218;51.408;7.208;2023-07-20T09:27:47;99717.09;;;24.11;51.75
4410;BME280;2218;51.408;7.208;2023-07-20T09:30:15;99727.63;;;24.13;52.03
4410;BME280;2218;51.408;7.208;2023-07-20T09:32:44;99728.59;;;24.12;51.94
4410;BME280;2218;51.408;7.208;2023-07-20T09:35:16;99725.94;;;24.12;52.06
4410;BME280;2218;51.408;7.208;2023-07-20T09:37:50;99725.94;;;24.12;51.46
4410;BME280;2218;51.408;7.208;2023-07-20T09:40:19;99724.97;;;24.13;51.21
4410;BME280;2218;51.408;7.208;2023-07-20T09:42:47;99728.44;;;24.13;51.03
4410;BME280;2218;51.408;7.208;2023-07-20T09:45:14;99727.47;;;24.14;50.81
4410;BME280;2218;51.408;7.208;2023-07-20T09:47:41;99723.97;;;24.14;50.44
4410;BME280;2218;51.408;7.208;2023-07-20T09:50:09;99717.69;;;24.15;50.51
4410;BME280;2218;51.408;7.208;2023-07-20T09:52:41;99717.81;;;24.13;50.41
4410;BME280;2218;51.408;7.208;2023-07-20T09:55:10;99716.00;;;24.14;50.34
4410;BME280;2218;51.408;7.208;2023-07-20T09:57:38;99711.53;;;24.14;50.21
4410;BME280;2218;51.408;7.208;2023-07-20T10:00:07;99717.69;;;24.15;50.24
4410;BME280;2218;51.408;7.208;2023-07-20T10:02:43;99708.88;;;24.14;49.64
4410;BME280;2218;51.408;7.208;2023-07-20T10:05:12;99710.56;;;24.15;49.79
4410;BME280;2218;51.408;7.208;2023-07-20T10:07:47;99710.69;;;24.14;49.61
4410;BME280;2218;51.408;7.208;2023-07-20T10:10:16;99712.53;;;24.13;49.73
4410;BME280;2218;51.408;7.208;2023-07-20T10:12:47;99716.00;;;24.14;49.59
4410;BME280;2218;51.408;7.208;2023-07-20T10:15:20;99716.84;;;24.14;49.34
4410;BME280;2218;51.408;7.208;2023-07-20T10:18:02;99716.00;;;24.14;49.07
4410;BME280;2218;51.408;7.208;2023-07-20T10:20:33;99722.00;;;24.16;49.54
4410;BME280;2218;51.408;7.208;2023-07-20T10:23:04;99714.88;;;24.16;48.86
4410;BME280;2218;51.408;7.208;2023-07-20T10:25:32;99718.50;;;24.15;48.74
4410;BME280;2218;51.408;7.208;2023-07-20T10:28:04;99714.03;;;24.16;48.52
4410;BME280;2218;51.408;7.208;2023-07-20T10:30:32;99717.53;;;24.16;48.58
4410;BME280;2218;51.408;7.208;2023-07-20T10:33:02;99710.44;;;24.17;48.43
4410;BME280;2218;51.408;7.208;2023-07-20T10:35:29;99715.75;;;24.17;48.22
4410;BME280;2218;51.408;7.208;2023-07-20T10:38:01;99709.56;;;24.16;48.35
4410;BME280;2218;51.408;7.208;2023-07-20T10:40:31;99706.06;;;24.16;48.80
4410;BME280;2218;51.408;7.208;2023-07-20T10:43:03;99708.72;;;24.16;49.27
4410;BME280;2218;51.408;7.208;2023-07-20T10:45:40;99708.72;;;24.16;49.05
4410;BME280;2218;51.408;7.208;2023-07-20T10:48:14;99708.72;;;24.16;49.25
4410;BME280;2218;51.408;7.208;2023-07-20T10:50:43;99702.47;;;24.17;49.62
4410;BME280;2218;51.408;7.208;2023-07-20T10:53:15;99698.84;;;24.18;49.16
4410;BME280;2218;51.408;7.208;2023-07-20T10:55:44;99705.13;;;24.17;49.41
4410;BME280;2218;51.408;7.208;2023-07-20T10:58:13;99701.47;;;24.18;49.08
4410;BME280;2218;51.408;7.208;2023-07-20T11:00:57;99697.84;;;24.19;49.34
4410;BME280;2218;51.408;7.208;2023-07-20T11:03:30;99698.69;;;24.19;49.40
4410;BME280;2218;51.408;7.208;2023-07-20T11:05:58;99692.53;;;24.19;49.40
4410;BME280;2218;51.408;7.208;2023-07-20T11:08:42;99696.03;;;24.19;49.52
4410;BME280;2218;51.408;7.208;2023-07-20T11:11:29;99697.84;;;24.19;49.40
4410;BME280;2218;51.408;7.208;2023-07-20T11:13:59;99681.22;;;24.17;48.75
4410;BME280;2218;51.408;7.208;2023-07-20T11:16:34;99689.19;;;24.17;49.31
4410;BME280;2218;51.408;7.208;2023-07-20T11:19:02;99683.88;;;24.17;49.43
4410;BME280;2218;51.408;7.208;2023-07-20T11:21:30;99678.56;;;24.17;49.16
4410;BME280;2218;51.408;7.208;2023-07-20T11:24:04;99681.22;;;24.17;49.61
4410;BME280;2218;51.408;7.208;2023-07-20T11:26:42;99674.94;;;24.18;49.27
4410;BME280;2218;51.408;7.208;2023-07-20T11:29:10;99673.09;;;24.18;49.49
4410;BME280;2218;51.408;7.208;2023-07-20T11:31:38;99679.94;;;24.21;49.31
4410;BME280;2218;51.408;7.208;2023-07-20T11:34:05;99672.97;;;24.20;49.66
4410;BME280;2218;51.408;7.208;2023-07-20T11:36:34;99676.59;;;24.19;49.68
4410;BME280;2218;51.408;7.208;2023-07-20T11:39:01;99671.28;;;24.19;49.41
4410;BME280;2218;51.408;7.208;2023-07-20T11:41:31;99676.59;;;24.19;49.55
4410;BME280;2218;51.408;7.208;2023-07-20T11:43:59;99673.94;;;24.19;49.32
4410;BME280;2218;51.408;7.208;2023-07-20T11:46:28;99672.97;;;24.20;49.52
4410;BME280;2218;51.408;7.208;2023-07-20T11:48:57;99667.81;;;24.18;49.57
4410;BME280;2218;51.408;7.208;2023-07-20T11:51:27;99676.59;;;24.19;49.47
4410;BME280;2218;51.408;7.208;2023-07-20T11:53:55;99670.47;;;24.18;49.83
4410;BME280;2218;51.408;7.208;2023-07-20T11:56:24;99673.09;;;24.18;49.53
4410;BME280;2218;51.408;7.208;2023-07-20T11:58:56;99667.81;;;24.18;49.64
4410;BME280;2218;51.408;7.208;2023-07-20T12:01:27;99663.47;;;24.17;49.58
4410;BME280;2218;51.408;7.208;2023-07-20T12:03:55;99658.16;;;24.17;49.25
4410;BME280;2218;51.408;7.208;2023-07-20T12:06:24;99665.00;;;24.20;49.86
4410;BME280;2218;51.408;7.208;2023-07-20T12:08:55;99673.81;;;24.20;49.52
4410;BME280;2218;51.408;7.208;2023-07-20T12:11:36;99663.06;;;24.22;49.49
4410;BME280;2218;51.408;7.208;2023-07-20T12:14:04;99661.34;;;24.21;49.46
4410;BME280;2218;51.408;7.208;2023-07-20T12:16:32;99661.34;;;24.21;49.32
4410;BME280;2218;51.408;7.208;2023-07-20T12:19:01;99665.72;;;24.22;49.49
4410;BME280;2218;51.408;7.208;2023-07-20T12:21:28;99663.06;;;24.22;49.60
4410;BME280;2218;51.408;7.208;2023-07-20T12:23:57;99657.75;;;24.22;49.06
4410;BME280;2218;51.408;7.208;2023-07-20T12:26:25;99661.25;;;24.22;48.78
4410;BME280;2218;51.408;7.208;2023-07-20T12:28:52;99651.44;;;24.23;49.17
4410;BME280;2218;51.408;7.208;2023-07-20T12:31:19;99648.06;;;24.21;48.62
4410;BME280;2218;51.408;7.208;2023-07-20T12:33:48;99644.47;;;24.22;49.20
4410;BME280;2218;51.408;7.208;2023-07-20T12:36:16;99646.97;;;24.23;48.69
4410;BME280;2218;51.408;7.208;2023-07-20T12:38:43;99650.47;;;24.24;48.32
4410;BME280;2218;51.408;7.208;2023-07-20T12:41:12;99644.31;;;24.23;48.52
4410;BME280;2218;51.408;7.208;2023-07-20T12:43:40;99651.31;;;24.24;48.96
4410;BME280;2218;51.408;7.208;2023-07-20T12:46:07;99647.81;;;24.24;48.82
4410;BME280;2218;51.408;7.208;2023-07-20T12:48:35;99635.53;;;24.23;48.38
4410;BME280;2218;51.408;7.208;2023-07-20T12:51:04;99639.00;;;24.23;48.98
4410;BME280;2218;51.408;7.208;2023-07-20T12:53:32;99640.84;;;24.23;49.50
4410;BME280;2218;51.408;7.208;2023-07-20T12:55:59;99635.53;;;24.23;49.23
4410;BME280;2218;51.408;7.208;2023-07-20T12:58:27;99638.19;;;24.23;49.15
4410;BME280;2218;51.408;7.208;2023-07-20T13:00:54;99632.72;;;24.24;49.79
4410;BME280;2218;51.408;7.208;2023-07-20T13:03:21;99636.34;;;24.23;48.89
4410;BME280;2218;51.408;7.208;2023-07-20T13:05:49;99636.34;;;24.23;48.69
4410;BME280;2218;51.408;7.208;2023-07-20T13:08:18;99637.19;;;24.24;48.50
4410;BME280;2218;51.408;7.208;2023-07-20T13:10:45;99631.88;;;24.24;48.52
4410;BME280;2218;51.408;7.208;2023-07-20T13:13:12;99634.53;;;24.24;48.55
4410;BME280;2218;51.408;7.208;2023-07-20T13:15:44;99633.69;;;24.23;48.92
4410;BME280;2218;51.408;7.208;2023-07-20T13:18:12;99631.88;;;24.24;49.15
4410;BME280;2218;51.408;7.208;2023-07-20T13:20:39;99628.53;;;24.22;48.19
4410;BME280;2218;51.408;7.208;2023-07-20T13:23:06;99627.56;;;24.23;48.68
4410;BME280;2218;51.408;7.208;2023-07-20T13:25:34;99624.06;;;24.22;48.82
4410;BME280;2218;51.408;7.208;2023-07-20T13:28:01;99627.56;;;24.23;49.01
4410;BME280;2218;51.408;7.208;2023-07-20T13:30:29;99628.38;;;24.23;49.12